createdAt,value
2019-04-22T00:02:06.012Z,95316.37
2019-04-22T00:05:01.086Z,95310.03
2019-04-22T00:08:01.647Z,95310.30
2019-04-22T00:10:56.911Z,95310.06
2019-04-22T00:13:47.494Z,95305.35
2019-04-22T00:16:45.435Z,95302.69
2019-04-22T00:22:20.548Z,95299.34
2019-04-22T00:25:10.211Z,95304.43
2019-04-22T00:30:36.131Z,95298.54
2019-04-22T00:33:29.426Z,95292.88
2019-04-22T00:36:16.403Z,95290.09
2019-04-22T00:39:08.860Z,95288.85
2019-04-22T00:41:57.067Z,95284.55
2019-04-22T00:44:46.975Z,95286.34
2019-04-22T00:47:38.055Z,95282.78
2019-04-22T00:50:23.575Z,95280.46
2019-04-22T00:53:19.674Z,95278.77
2019-04-22T00:58:56.570Z,95280.63
2019-04-22T01:01:47.120Z,95271.59
2019-04-22T01:04:40.629Z,95267.29
2019-04-22T01:07:25.378Z,95263.73
2019-04-22T01:10:19.718Z,95265.23
2019-04-22T01:13:04.782Z,95263.09
2019-04-22T01:16:01.182Z,95260.51
2019-04-22T01:18:42.315Z,95263.96
2019-04-22T01:21:36.985Z,95253.00
2019-04-22T01:24:16.847Z,95254.69
2019-04-22T01:27:02.903Z,95244.59
2019-04-22T01:29:51.475Z,95250.36
2019-04-22T01:32:34.023Z,95246.39
2019-04-22T01:35:31.146Z,95238.75
2019-04-22T01:38:19.008Z,95243.02
2019-04-22T01:41:26.638Z,95244.12
2019-04-22T01:44:14.358Z,95236.98
2019-04-22T01:47:00.230Z,95239.94
2019-04-22T01:49:46.215Z,95241.54
2019-04-22T01:52:41.549Z,95228.61
2019-04-22T01:58:10.880Z,95236.36
2019-04-22T02:01:04.918Z,95232.16
2019-04-22T02:03:59.587Z,95227.00
2019-04-22T02:06:42.175Z,95224.97
2019-04-22T02:09:49.669Z,95224.45
2019-04-22T02:15:13.815Z,95232.09
2019-04-22T02:18:01.708Z,95222.52
2019-04-22T02:20:48.799Z,95222.48
2019-04-22T02:26:31.298Z,95216.89
2019-04-22T02:29:26.700Z,95219.71
2019-04-22T02:32:24.800Z,95215.28
2019-04-22T02:35:23.997Z,95216.78
2019-04-22T02:37:48.117Z,95217.97
2019-04-22T02:40:56.282Z,95211.46
2019-04-22T02:43:49.203Z,95205.15
2019-04-22T02:46:41.292Z,95200.63
2019-04-22T02:49:18.726Z,95203.88
2019-04-22T02:51:52.138Z,95192.52
2019-04-22T03:00:34.583Z,95186.45
2019-04-22T03:03:41.403Z,95185.11
2019-04-22T03:06:16.502Z,95181.52
2019-04-22T03:08:53.781Z,95178.59
2019-04-22T03:11:50.033Z,95176.96
2019-04-22T03:14:30.635Z,95177.41
2019-04-22T03:17:22.093Z,95173.65
2019-04-22T03:23:13.690Z,95164.28
2019-04-22T03:28:49.979Z,95164.50
2019-04-22T03:40:30.397Z,95150.31
2019-04-22T03:45:51.674Z,95138.64
2019-04-22T03:49:05.967Z,95139.14
2019-04-22T03:51:54.485Z,95137.38
2019-04-22T03:54:39.902Z,95125.78
2019-04-22T04:00:21.688Z,95132.19
2019-04-22T04:11:38.159Z,95129.86
2019-04-22T04:14:18.195Z,95126.28
2019-04-22T04:17:02.380Z,95119.75
2019-04-22T04:20:10.695Z,95114.55
2019-04-22T04:22:53.713Z,95112.96
2019-04-22T04:28:47.188Z,95107.62
2019-04-22T04:31:22.270Z,95101.64
2019-04-22T04:36:54.586Z,95094.94
2019-04-22T04:39:43.400Z,95101.50
2019-04-22T04:45:40.537Z,95094.77
2019-04-22T04:48:09.629Z,95100.07
2019-04-22T04:53:52.124Z,95088.77
2019-04-22T04:59:41.707Z,95091.86
2019-04-22T05:02:19.875Z,95091.86
2019-04-22T05:07:51.948Z,95092.47
2019-04-22T05:13:33.412Z,95097.31
2019-04-22T05:16:34.518Z,95097.98
2019-04-22T05:21:53.405Z,95092.16
2019-04-22T05:33:01.389Z,95082.44
2019-04-22T05:35:57.933Z,95080.62
2019-04-22T05:38:49.499Z,95079.39
2019-04-22T05:41:39.575Z,95074.34
2019-04-22T05:44:30.864Z,95079.08
2019-04-22T05:47:14.684Z,95065.84
2019-04-22T05:50:02.356Z,95061.80
2019-04-22T05:52:51.499Z,95063.16
2019-04-22T05:58:38.443Z,95062.95
2019-04-22T06:01:43.530Z,95063.25
2019-04-22T06:04:11.506Z,95063.27
2019-04-22T06:07:00.507Z,95057.20
2019-04-22T06:09:55.765Z,95057.72
2019-04-22T06:12:35.678Z,95053.29
2019-04-22T06:15:30.129Z,95054.88
2019-04-22T06:18:22.783Z,95049.55
2019-04-22T06:21:11.439Z,95048.14
2019-04-22T06:24:07.741Z,95046.23
2019-04-22T06:29:30.140Z,95047.16
2019-04-22T06:35:23.271Z,95043.97
2019-04-22T06:41:07.332Z,95044.50
2019-04-22T06:43:44.614Z,95042.98
2019-04-22T06:46:34.617Z,95036.94
2019-04-22T06:49:23.884Z,95038.58
2019-04-22T06:52:17.046Z,95037.09
2019-04-22T06:55:05.982Z,95034.13
2019-04-22T06:57:52.388Z,95027.22
2019-04-22T07:00:42.976Z,95024.98
2019-04-22T07:03:45.820Z,95018.72
2019-04-22T07:06:23.556Z,95016.85
2019-04-22T07:12:02.439Z,95019.27
2019-04-22T07:14:49.010Z,95016.40
2019-04-22T07:17:37.953Z,95012.16
2019-04-22T07:20:24.214Z,95012.59
2019-04-22T07:23:24.845Z,95006.36
2019-04-22T07:26:06.071Z,94997.27
2019-04-22T07:28:49.033Z,94992.80
2019-04-22T07:31:42.795Z,94990.22
2019-04-22T07:34:33.334Z,94994.25
2019-04-22T07:37:29.710Z,95000.84
2019-04-22T07:40:09.828Z,94992.77
2019-04-22T07:42:57.507Z,94984.06
2019-04-22T07:45:48.903Z,94985.08
2019-04-22T07:48:45.239Z,94969.60
2019-04-22T07:51:32.716Z,94975.64
2019-04-22T07:54:16.305Z,94969.51
2019-04-22T07:57:12.080Z,94958.48
2019-04-22T07:59:58.979Z,94969.82
2019-04-22T08:02:55.461Z,94963.30
2019-04-22T08:08:26.099Z,94958.13
2019-04-22T08:11:22.131Z,94959.86
2019-04-22T08:13:58.894Z,94951.70
2019-04-22T08:16:53.315Z,94954.58
2019-04-22T08:19:44.081Z,94949.45
2019-04-22T08:22:25.973Z,94944.89
2019-04-22T08:25:16.718Z,94938.36
2019-04-22T08:28:13.312Z,94935.31
2019-04-22T08:31:01.957Z,94933.83
2019-04-22T08:33:46.575Z,94926.56
2019-04-22T08:36:40.811Z,94924.81
2019-04-22T08:39:35.865Z,94914.36
2019-04-22T08:42:17.738Z,94923.25
2019-04-22T08:45:09.609Z,94916.87
2019-04-22T08:47:51.247Z,94911.40
2019-04-22T08:50:44.246Z,94918.86
2019-04-22T08:53:32.983Z,94918.35
2019-04-22T08:56:29.553Z,94909.95
2019-04-22T09:01:59.653Z,94903.95
2019-04-22T09:04:48.075Z,94897.23
2019-04-22T09:07:44.753Z,94895.47
2019-04-22T09:10:33.517Z,94889.14
2019-04-22T09:13:14.305Z,94888.30
2019-04-22T09:16:10.368Z,94880.31
2019-04-22T09:18:54.265Z,94883.29
2019-04-22T09:21:53.217Z,94876.17
2019-04-22T09:24:39.067Z,94873.25
2019-04-22T09:27:37.035Z,94867.19
2019-04-22T09:30:16.903Z,94865.58
2019-04-22T09:33:08.229Z,94860.44
2019-04-22T09:35:52.000Z,94869.45
2019-04-22T09:41:33.450Z,94851.97
2019-04-22T09:44:14.881Z,94855.66
2019-04-22T09:47:08.024Z,94854.54
2019-04-22T09:52:50.075Z,94844.80
2019-04-22T09:55:34.548Z,94840.00
2019-04-22T09:58:23.638Z,94833.73
2019-04-22T10:01:23.841Z,94832.41
2019-04-22T10:04:06.437Z,94829.38
2019-04-22T10:06:57.429Z,94820.42
2019-04-22T10:12:37.081Z,94819.08
2019-04-22T10:15:25.109Z,94813.09
2019-04-22T10:18:20.333Z,94807.50
2019-04-22T10:21:00.994Z,94795.09
2019-04-22T10:23:54.820Z,94789.80
2019-04-22T10:29:38.588Z,94777.45
2019-04-22T10:32:17.770Z,94770.52
2019-04-22T10:35:11.133Z,94759.55
2019-04-22T10:37:54.405Z,94756.02
2019-04-22T10:40:42.831Z,94751.66
2019-04-22T10:43:30.594Z,94745.06
2019-04-22T10:46:18.179Z,94733.25
2019-04-22T10:49:06.427Z,94727.94
2019-04-22T10:51:54.937Z,94716.05
2019-04-22T10:54:43.287Z,94711.87
2019-04-22T10:57:31.864Z,94705.05
2019-04-22T11:00:19.853Z,94710.11
2019-04-22T11:03:08.438Z,94709.38
2019-04-22T11:05:57.100Z,94704.28
2019-04-22T11:08:52.230Z,94694.17
2019-04-22T11:11:45.518Z,94684.94
2019-04-22T11:14:23.333Z,94673.75
2019-04-22T11:17:11.444Z,94675.05
2019-04-22T11:19:59.636Z,94682.97
2019-04-22T11:22:48.826Z,94684.69
2019-04-22T11:25:36.680Z,94678.27
2019-04-22T11:28:25.517Z,94678.95
2019-04-22T11:31:14.536Z,94679.56
2019-04-22T11:34:02.847Z,94678.25
2019-04-22T11:36:50.628Z,94671.02
2019-04-22T11:39:38.652Z,94668.58
2019-04-22T11:42:28.038Z,94666.59
2019-04-22T11:45:17.387Z,94659.03
2019-04-22T11:48:05.557Z,94662.72
2019-04-22T11:50:53.716Z,94661.89
2019-04-22T11:53:42.788Z,94659.91
2019-04-22T11:56:31.296Z,94647.41
2019-04-22T11:59:20.563Z,94645.44
2019-04-22T12:02:08.990Z,94651.83
2019-04-22T12:04:58.130Z,94642.64
2019-04-22T12:07:46.978Z,94638.49
2019-04-22T12:10:41.122Z,94636.14
2019-04-22T12:13:24.219Z,94623.02
2019-04-22T12:16:11.703Z,94622.17
2019-04-22T12:18:59.256Z,94616.52
2019-04-22T12:21:49.131Z,94621.16
2019-04-22T12:24:38.378Z,94614.61
2019-04-22T12:27:28.751Z,94615.19
2019-04-22T12:30:16.760Z,94611.27
2019-04-22T12:33:07.387Z,94603.05
2019-04-22T12:35:54.765Z,94610.80
2019-04-22T12:38:42.517Z,94604.94
2019-04-22T12:41:31.115Z,94601.62
2019-04-22T12:44:20.140Z,94585.11
2019-04-22T12:47:09.855Z,94577.94
2019-04-22T12:50:11.857Z,94569.19
2019-04-22T12:52:54.725Z,94569.66
2019-04-22T12:55:35.643Z,94570.23
2019-04-22T12:58:23.612Z,94568.44
2019-04-22T13:01:11.209Z,94564.31
2019-04-22T13:04:05.774Z,94556.77
2019-04-22T13:06:49.870Z,94544.78
2019-04-22T13:09:38.982Z,94547.43
2019-04-22T13:12:26.922Z,94546.06
2019-04-22T13:15:15.986Z,94542.65
2019-04-22T13:18:13.531Z,94540.41
2019-04-22T13:20:52.933Z,94535.87
2019-04-22T13:23:41.293Z,94530.03
2019-04-22T13:26:29.748Z,94526.31
2019-04-22T13:29:17.271Z,94522.41
2019-04-22T13:32:05.023Z,94513.58
2019-04-22T13:34:57.513Z,94520.61
2019-04-22T13:37:43.332Z,94515.03
2019-04-22T13:40:30.911Z,94506.56
2019-04-22T13:43:18.778Z,94509.84
2019-04-22T13:46:08.075Z,94507.73
2019-04-22T13:49:23.967Z,94503.88
2019-04-22T13:54:59.890Z,94498.52
2019-04-22T13:57:42.618Z,94496.01
2019-04-22T14:00:16.487Z,94487.48
2019-04-22T14:03:30.826Z,94491.80
2019-04-22T14:06:20.577Z,94487.83
2019-04-22T14:09:09.518Z,94485.41
2019-04-22T14:12:03.357Z,94479.77
2019-04-22T14:14:49.042Z,94474.34
2019-04-22T14:17:36.829Z,94483.31
2019-04-22T14:20:27.762Z,94468.00
2019-04-22T14:23:15.943Z,94473.70
2019-04-22T14:26:05.228Z,94459.72
2019-04-22T14:28:53.465Z,94459.28
2019-04-22T14:31:42.480Z,94451.77
2019-04-22T14:34:30.316Z,94446.99
2019-04-22T14:37:18.626Z,94444.93
2019-04-22T14:40:09.493Z,94444.93
2019-04-22T14:43:21.383Z,94437.67
2019-04-22T14:46:17.672Z,94430.20
2019-04-22T14:48:55.717Z,94425.48
2019-04-22T14:51:47.059Z,94424.45
2019-04-22T14:54:31.054Z,94425.31
2019-04-22T14:57:03.514Z,94426.40
2019-04-22T14:59:51.023Z,94418.40
2019-04-22T15:02:39.516Z,94422.09
2019-04-22T15:05:28.262Z,94411.95
2019-04-22T15:08:17.300Z,94409.13
2019-04-22T15:11:06.258Z,94405.41
2019-04-22T15:13:54.129Z,94408.58
2019-04-22T15:16:53.043Z,94408.41
2019-04-22T15:19:59.785Z,94405.52
2019-04-22T15:22:48.405Z,94415.00
2019-04-22T15:25:36.749Z,94408.75
2019-04-22T15:28:24.425Z,94407.95
2019-04-22T15:31:11.606Z,94404.19
2019-04-22T15:34:00.572Z,94402.22
2019-04-22T15:36:48.531Z,94400.05
2019-04-22T15:39:36.453Z,94398.72
2019-04-22T15:42:28.688Z,94395.90
2019-04-22T15:45:15.040Z,94394.42
2019-04-22T15:48:02.352Z,94395.83
2019-04-22T15:50:50.746Z,94393.20
2019-04-22T15:53:39.889Z,94392.81
2019-04-22T15:56:28.456Z,94385.85
2019-04-22T15:59:35.070Z,94392.63
2019-04-22T16:02:06.610Z,94396.89
2019-04-22T16:04:56.719Z,94389.82
2019-04-22T16:07:45.794Z,94387.71
2019-04-22T16:10:33.819Z,94375.21
2019-04-22T16:13:26.448Z,94365.60
2019-04-22T16:16:10.644Z,94368.70
2019-04-22T16:18:58.585Z,94364.27
2019-04-22T16:21:53.431Z,94361.40
2019-04-22T16:24:54.145Z,94353.94
2019-04-22T16:27:42.784Z,94346.04
2019-04-22T16:30:31.036Z,94351.62
2019-04-22T16:33:19.348Z,94344.58
2019-04-22T16:36:08.860Z,94345.34
2019-04-22T16:38:57.150Z,94349.80
2019-04-22T16:41:46.560Z,94342.14
2019-04-22T16:44:34.519Z,94332.08
2019-04-22T16:47:23.769Z,94338.34
2019-04-22T16:50:11.734Z,94332.48
2019-04-22T16:52:59.746Z,94323.69
2019-04-22T16:55:47.174Z,94330.25
2019-04-22T16:58:36.841Z,94328.88
2019-04-22T17:01:52.805Z,94333.86
2019-04-22T17:04:51.194Z,94329.75
2019-04-22T17:07:38.636Z,94320.48
2019-04-22T17:10:27.937Z,94319.11
2019-04-22T17:13:20.727Z,94316.45
2019-04-22T17:16:06.896Z,94316.69
2019-04-22T17:18:56.347Z,94311.42
2019-04-22T17:21:45.363Z,94312.20
2019-04-22T17:24:33.030Z,94312.31
2019-04-22T17:27:20.648Z,94315.20
2019-04-22T17:30:10.455Z,94309.26
2019-04-22T17:32:58.800Z,94311.55
2019-04-22T17:35:48.837Z,94315.56
2019-04-22T17:38:45.442Z,94309.67
2019-04-22T17:41:44.950Z,94303.78
2019-04-22T17:44:42.319Z,94301.89
2019-04-22T17:47:41.398Z,94299.44
2019-04-22T17:50:37.926Z,94292.23
2019-04-22T17:53:25.992Z,94290.16
2019-04-22T17:56:13.743Z,94289.64
2019-04-22T17:59:03.928Z,94284.72
2019-04-22T18:01:54.008Z,94274.70
2019-04-22T18:04:23.407Z,94278.41
2019-04-22T18:13:20.468Z,94262.92
2019-04-22T18:16:02.354Z,94267.86
2019-04-22T18:18:53.288Z,94263.73
2019-04-22T18:21:39.311Z,94266.62
2019-04-22T18:24:20.004Z,94262.66
2019-04-22T18:27:30.448Z,94261.92
2019-04-22T18:29:59.994Z,94258.49
2019-04-22T18:32:58.587Z,94254.80
2019-04-22T18:35:39.378Z,94247.60
2019-04-22T18:38:46.813Z,94248.08
2019-04-22T18:41:18.199Z,94246.63
2019-04-22T18:44:17.557Z,94244.00
2019-04-22T18:47:01.284Z,94244.87
2019-04-22T18:49:46.250Z,94245.66
2019-04-22T18:52:49.930Z,94258.02
2019-04-22T18:55:55.557Z,94258.42
2019-04-22T18:58:39.388Z,94257.38
2019-04-22T19:01:19.731Z,94258.85
2019-04-22T19:04:16.450Z,94256.69
2019-04-22T19:07:25.479Z,94255.97
2019-04-22T19:10:17.269Z,94265.17
2019-04-22T19:13:31.477Z,94264.30
2019-04-22T19:15:54.089Z,94264.45
2019-04-22T19:18:44.532Z,94265.56
2019-04-22T19:21:19.421Z,94272.64
2019-04-22T19:24:08.998Z,94278.63
2019-04-22T19:27:02.214Z,94272.42
2019-04-22T19:29:57.706Z,94267.11
2019-04-22T19:32:46.398Z,94260.31
2019-04-22T19:35:28.340Z,94263.13
2019-04-22T19:38:12.241Z,94255.13
2019-04-22T19:41:14.557Z,94260.56
2019-04-22T19:44:04.060Z,94254.63
2019-04-22T19:47:11.817Z,94252.61
2019-04-22T19:49:48.116Z,94249.14
2019-04-22T19:52:28.833Z,94239.80
2019-04-22T19:55:18.282Z,94241.05
2019-04-22T19:58:02.802Z,94239.02
2019-04-22T20:01:13.182Z,94231.77
2019-04-22T20:04:31.452Z,94227.96
2019-04-22T20:07:14.174Z,94228.78
2019-04-22T20:10:04.683Z,94222.69
2019-04-22T20:12:50.060Z,94217.81
2019-04-22T20:15:33.293Z,94216.63
2019-04-22T20:21:26.773Z,94206.48
2019-04-22T20:24:01.575Z,94204.33
2019-04-22T20:27:10.836Z,94198.96
2019-04-22T20:29:49.463Z,94191.50
2019-04-22T20:32:40.277Z,94199.66
2019-04-22T20:35:37.431Z,94197.61
2019-04-22T20:38:16.859Z,94197.58
2019-04-22T20:41:05.649Z,94197.95
2019-04-22T20:43:57.694Z,94186.57
2019-04-22T20:46:44.704Z,94186.44
2019-04-22T20:49:35.273Z,94188.81
2019-04-22T20:55:07.979Z,94176.03
2019-04-22T20:58:02.672Z,94181.70
2019-04-22T21:00:40.341Z,94181.03
2019-04-22T21:03:29.406Z,94172.00
2019-04-22T21:06:27.471Z,94162.92
2019-04-22T21:09:18.549Z,94171.92
2019-04-22T21:12:02.330Z,94179.11
2019-04-22T21:15:02.511Z,94175.09
2019-04-22T21:17:44.843Z,94170.18
2019-04-22T21:20:37.790Z,94168.34
2019-04-22T21:23:18.827Z,94174.77
2019-04-22T21:26:13.573Z,94169.26
2019-04-22T21:29:05.476Z,94163.42
2019-04-22T21:31:56.064Z,94165.88
2019-04-22T21:34:48.541Z,94164.92
2019-04-22T21:37:38.546Z,94156.94
2019-04-22T21:40:23.013Z,94159.75
2019-04-22T21:43:13.657Z,94159.80
2019-04-22T21:46:04.179Z,94157.52
2019-04-22T21:48:46.276Z,94156.16
2019-04-22T21:51:43.256Z,94159.13
2019-04-22T21:54:34.673Z,94159.70
2019-04-22T21:57:57.219Z,94152.91
2019-04-22T22:03:43.005Z,94146.87
2019-04-22T22:06:19.630Z,94144.36
2019-04-22T22:09:23.257Z,94139.89
2019-04-22T22:12:02.655Z,94145.21
2019-04-22T22:14:56.083Z,94142.77
2019-04-22T22:17:42.268Z,94142.53
2019-04-22T22:20:45.260Z,94137.02
2019-04-22T22:23:31.837Z,94129.09
2019-04-22T22:26:09.568Z,94125.89
2019-04-22T22:29:08.869Z,94114.51
2019-04-22T22:32:02.839Z,94107.05
2019-04-22T22:34:47.573Z,94106.67
2019-04-22T22:37:21.896Z,94105.20
2019-04-22T22:40:09.175Z,94113.69
2019-04-22T22:42:53.621Z,94116.96
2019-04-22T22:45:48.803Z,94106.74
2019-04-22T22:48:52.021Z,94116.75
2019-04-22T22:51:51.857Z,94113.00
2019-04-22T22:54:33.001Z,94105.31
2019-04-22T22:57:25.826Z,94107.53
2019-04-22T23:00:03.886Z,94110.89
2019-04-22T23:03:23.338Z,94119.41
2019-04-22T23:05:53.234Z,94111.64
2019-04-22T23:08:38.259Z,94110.33
2019-04-22T23:11:34.390Z,94109.67
2019-04-22T23:14:17.634Z,94100.69
2019-04-22T23:16:49.491Z,94092.45
2019-04-22T23:19:32.638Z,94087.55
2019-04-22T23:22:30.232Z,94091.64
2019-04-22T23:25:33.250Z,94084.49
2019-04-22T23:28:30.068Z,94085.91
2019-04-22T23:31:36.831Z,94090.47
2019-04-22T23:34:32.960Z,94077.56
2019-04-22T23:37:27.749Z,94071.14
2019-04-22T23:40:32.585Z,94068.03
2019-04-22T23:43:23.769Z,94074.16
2019-04-22T23:46:04.214Z,94075.78
2019-04-22T23:48:51.501Z,94075.69
2019-04-22T23:51:51.727Z,94074.80
2019-04-22T23:54:38.983Z,94076.53
2019-04-22T23:57:26.352Z,94080.82
